sensor_id;sensor_type;location;lat;lon;timestamp;temperature;humidity
54124;DHT22;55741;53.252;5.788;2023-05-07T00:00:12;13.30;99.90
54124;DHT22;55741;53.252;5.788;2023-05-07T00:02:41;13.30;99.90
54124;DHT22;55741;53.252;5.788;2023-05-07T00:05:07;13.30;99.90
54124;DHT22;55741;53.252;5.788;2023-05-07T00:07:33;13.20;99.90
54124;DHT22;55741;53.252;5.788;2023-05-07T00:09:58;13.30;99.90
54124;DHT22;55741;53.252;5.788;2023-05-07T00:12:24;13.20;99.90
54124;DHT22;55741;53.252;5.788;2023-05-07T00:14:51;13.20;99.90
54124;DHT22;55741;53.252;5.788;2023-05-07T00:17:16;13.20;99.90
54124;DHT22;55741;53.252;5.788;2023-05-07T00:19:42;13.20;99.90
54124;DHT22;55741;53.252;5.788;2023-05-07T00:22:08;13.10;99.90
54124;DHT22;55741;53.252;5.788;2023-05-07T00:24:34;13.10;99.90
54124;DHT22;55741;53.252;5.788;2023-05-07T00:27:00;13.10;99.90
54124;DHT22;55741;53.252;5.788;2023-05-07T00:29:26;13.10;99.90
54124;DHT22;55741;53.252;5.788;2023-05-07T00:31:51;13.10;99.90
54124;DHT22;55741;53.252;5.788;2023-05-07T00:34:19;13.10;99.90
54124;DHT22;55741;53.252;5.788;2023-05-07T00:36:45;13.10;99.90
54124;DHT22;55741;53.252;5.788;2023-05-07T00:39:11;13.10;99.90
54124;DHT22;55741;53.252;5.788;2023-05-07T00:41:37;13.10;99.90
54124;DHT22;55741;53.252;5.788;2023-05-07T00:44:03;13.10;99.90
54124;DHT22;55741;53.252;5.788;2023-05-07T00:46:30;13.10;99.90
54124;DHT22;55741;53.252;5.788;2023-05-07T00:48:57;13.10;99.90
54124;DHT22;55741;53.252;5.788;2023-05-07T00:51:24;13.00;99.90
54124;DHT22;55741;53.252;5.788;2023-05-07T00:53:50;13.00;99.90
54124;DHT22;55741;53.252;5.788;2023-05-07T00:56:18;13.00;99.90
54124;DHT22;55741;53.252;5.788;2023-05-07T00:58:44;13.00;99.90
54124;DHT22;55741;53.252;5.788;2023-05-07T01:01:10;13.00;99.90
54124;DHT22;55741;53.252;5.788;2023-05-07T01:03:36;13.00;99.90
54124;DHT22;55741;53.252;5.788;2023-05-07T01:06:02;12.90;99.90
54124;DHT22;55741;53.252;5.788;2023-05-07T01:08:29;13.00;99.90
54124;DHT22;55741;53.252;5.788;2023-05-07T01:10:57;12.90;99.90
54124;DHT22;55741;53.252;5.788;2023-05-07T01:13:23;12.90;99.90
54124;DHT22;55741;53.252;5.788;2023-05-07T01:15:50;12.90;99.90
54124;DHT22;55741;53.252;5.788;2023-05-07T01:18:15;12.90;99.90
54124;DHT22;55741;53.252;5.788;2023-05-07T01:20:42;12.90;99.90
54124;DHT22;55741;53.252;5.788;2023-05-07T01:23:08;12.90;99.90
54124;DHT22;55741;53.252;5.788;2023-05-07T01:25:36;12.90;99.90
54124;DHT22;55741;53.252;5.788;2023-05-07T01:28:02;12.80;99.90
54124;DHT22;55741;53.252;5.788;2023-05-07T01:30:28;12.80;99.90
54124;DHT22;55741;53.252;5.788;2023-05-07T01:33:06;12.80;99.90
54124;DHT22;55741;53.252;5.788;2023-05-07T01:35:36;12.80;99.90
54124;DHT22;55741;53.252;5.788;2023-05-07T01:38:03;12.80;99.90
54124;DHT22;55741;53.252;5.788;2023-05-07T01:40:31;12.80;99.90
54124;DHT22;55741;53.252;5.788;2023-05-07T01:42:57;12.80;99.90
54124;DHT22;55741;53.252;5.788;2023-05-07T01:45:24;12.70;99.90
54124;DHT22;55741;53.252;5.788;2023-05-07T01:47:51;12.70;99.90
54124;DHT22;55741;53.252;5.788;2023-05-07T01:50:19;12.70;99.90
54124;DHT22;55741;53.252;5.788;2023-05-07T01:52:46;12.70;99.90
54124;DHT22;55741;53.252;5.788;2023-05-07T01:55:12;12.70;99.90
54124;DHT22;55741;53.252;5.788;2023-05-07T01:57:39;12.70;99.90
54124;DHT22;55741;53.252;5.788;2023-05-07T02:00:06;12.70;99.90
54124;DHT22;55741;53.252;5.788;2023-05-07T02:02:32;12.70;99.90
54124;DHT22;55741;53.252;5.788;2023-05-07T02:04:59;12.70;99.90
54124;DHT22;55741;53.252;5.788;2023-05-07T02:07:25;12.60;99.90
54124;DHT22;55741;53.252;5.788;2023-05-07T02:09:50;12.60;99.90
54124;DHT22;55741;53.252;5.788;2023-05-07T02:12:16;12.60;99.90
54124;DHT22;55741;53.252;5.788;2023-05-07T02:14:42;12.60;99.90
54124;DHT22;55741;53.252;5.788;2023-05-07T02:17:08;12.60;99.90
54124;DHT22;55741;53.252;5.788;2023-05-07T02:19:34;12.60;99.90
54124;DHT22;55741;53.252;5.788;2023-05-07T02:22:00;12.50;99.90
54124;DHT22;55741;53.252;5.788;2023-05-07T02:24:26;12.50;99.90
54124;DHT22;55741;53.252;5.788;2023-05-07T02:26:52;12.50;99.90
54124;DHT22;55741;53.252;5.788;2023-05-07T02:29:18;12.50;99.90
54124;DHT22;55741;53.252;5.788;2023-05-07T02:31:43;12.40;99.90
54124;DHT22;55741;53.252;5.788;2023-05-07T02:34:09;12.40;99.90
54124;DHT22;55741;53.252;5.788;2023-05-07T02:36:35;12.40;99.90
54124;DHT22;55741;53.252;5.788;2023-05-07T02:39:01;12.40;99.90
54124;DHT22;55741;53.252;5.788;2023-05-07T02:41:28;12.40;99.90
54124;DHT22;55741;53.252;5.788;2023-05-07T02:43:54;12.40;99.90
54124;DHT22;55741;53.252;5.788;2023-05-07T02:46:19;12.30;99.90
54124;DHT22;55741;53.252;5.788;2023-05-07T02:48:45;12.30;99.90
54124;DHT22;55741;53.252;5.788;2023-05-07T02:51:11;12.30;99.90
54124;DHT22;55741;53.252;5.788;2023-05-07T02:53:37;12.30;99.90
54124;DHT22;55741;53.252;5.788;2023-05-07T02:56:03;12.30;99.90
54124;DHT22;55741;53.252;5.788;2023-05-07T02:58:30;12.30;99.90
54124;DHT22;55741;53.252;5.788;2023-05-07T03:00:56;12.20;99.90
54124;DHT22;55741;53.252;5.788;2023-05-07T03:03:22;12.20;99.90
54124;DHT22;55741;53.252;5.788;2023-05-07T03:05:48;12.20;99.90
54124;DHT22;55741;53.252;5.788;2023-05-07T03:08:13;12.20;99.90
54124;DHT22;55741;53.252;5.788;2023-05-07T03:10:39;12.20;99.90
54124;DHT22;55741;53.252;5.788;2023-05-07T03:13:05;12.20;99.90
54124;DHT22;55741;53.252;5.788;2023-05-07T03:15:31;12.10;99.90
54124;DHT22;55741;53.252;5.788;2023-05-07T03:17:57;12.10;99.90
54124;DHT22;55741;53.252;5.788;2023-05-07T03:20:23;12.10;99.90
54124;DHT22;55741;53.252;5.788;2023-05-07T03:22:48;12.10;99.90
54124;DHT22;55741;53.252;5.788;2023-05-07T03:25:14;12.10;99.90
54124;DHT22;55741;53.252;5.788;2023-05-07T03:27:40;12.10;99.90
54124;DHT22;55741;53.252;5.788;2023-05-07T03:30:08;12.00;99.90
54124;DHT22;55741;53.252;5.788;2023-05-07T03:32:34;12.00;99.90
54124;DHT22;55741;53.252;5.788;2023-05-07T03:35:01;12.00;99.90
54124;DHT22;55741;53.252;5.788;2023-05-07T03:37:27;11.90;99.90
54124;DHT22;55741;53.252;5.788;2023-05-07T03:39:53;11.90;99.90
54124;DHT22;55741;53.252;5.788;2023-05-07T03:42:19;11.90;99.90
54124;DHT22;55741;53.252;5.788;2023-05-07T03:44:45;11.90;99.90
54124;DHT22;55741;53.252;5.788;2023-05-07T03:47:11;11.80;99.90
54124;DHT22;55741;53.252;5.788;2023-05-07T03:49:39;11.90;99.90
54124;DHT22;55741;53.252;5.788;2023-05-07T03:52:05;11.80;99.90
54124;DHT22;55741;53.252;5.788;2023-05-07T03:54:31;11.80;99.90
54124;DHT22;55741;53.252;5.788;2023-05-07T03:56:57;11.80;99.90
54124;DHT22;55741;53.252;5.788;2023-05-07T03:59:25;11.80;99.90
54124;DHT22;55741;53.252;5.788;2023-05-07T04:01:50;11.70;99.90
54124;DHT22;55741;53.252;5.788;2023-05-07T04:04:16;11.80;99.90
54124;DHT22;55741;53.252;5.788;2023-05-07T04:06:42;11.70;99.90
54124;DHT22;55741;53.252;5.788;2023-05-07T04:09:08;11.70;99.90
54124;DHT22;55741;53.252;5.788;2023-05-07T04:11:35;11.70;99.90
54124;DHT22;55741;53.252;5.788;2023-05-07T04:14:01;11.70;99.90
54124;DHT22;55741;53.252;5.788;2023-05-07T04:16:27;11.70;99.90
54124;DHT22;55741;53.252;5.788;2023-05-07T04:18:53;11.60;99.90
54124;DHT22;55741;53.252;5.788;2023-05-07T04:21:20;11.60;99.90
54124;DHT22;55741;53.252;5.788;2023-05-07T04:23:49;11.60;99.90
54124;DHT22;55741;53.252;5.788;2023-05-07T04:26:15;11.60;99.90
54124;DHT22;55741;53.252;5.788;2023-05-07T04:28:42;11.60;99.90
54124;DHT22;55741;53.252;5.788;2023-05-07T04:31:08;11.60;99.90
54124;DHT22;55741;53.252;5.788;2023-05-07T04:33:34;11.60;99.90
54124;DHT22;55741;53.252;5.788;2023-05-07T04:36:03;11.60;99.90
54124;DHT22;55741;53.252;5.788;2023-05-07T04:38:32;11.60;99.90
54124;DHT22;55741;53.252;5.788;2023-05-07T04:41:05;11.50;99.90
54124;DHT22;55741;53.252;5.788;2023-05-07T04:43:32;11.50;99.90
54124;DHT22;55741;53.252;5.788;2023-05-07T04:45:58;11.50;99.90
54124;DHT22;55741;53.252;5.788;2023-05-07T04:48:24;11.50;99.90
54124;DHT22;55741;53.252;5.788;2023-05-07T04:50:50;11.50;99.90
54124;DHT22;55741;53.252;5.788;2023-05-07T04:53:16;11.50;99.90
54124;DHT22;55741;53.252;5.788;2023-05-07T04:55:43;11.50;99.90
54124;DHT22;55741;53.252;5.788;2023-05-07T04:58:09;11.60;99.90
54124;DHT22;55741;53.252;5.788;2023-05-07T05:00:36;11.50;99.90
54124;DHT22;55741;53.252;5.788;2023-05-07T05:03:07;11.60;99.90
54124;DHT22;55741;53.252;5.788;2023-05-07T05:05:33;11.60;99.90
54124;DHT22;55741;53.252;5.788;2023-05-07T05:07:59;11.60;99.90
54124;DHT22;55741;53.252;5.788;2023-05-07T05:10:25;11.60;99.90
54124;DHT22;55741;53.252;5.788;2023-05-07T05:12:51;11.60;99.90
54124;DHT22;55741;53.252;5.788;2023-05-07T05:15:17;11.60;99.90
54124;DHT22;55741;53.252;5.788;2023-05-07T05:17:43;11.60;99.90
54124;DHT22;55741;53.252;5.788;2023-05-07T05:20:09;11.60;99.90
54124;DHT22;55741;53.252;5.788;2023-05-07T05:22:37;11.60;99.90
54124;DHT22;55741;53.252;5.788;2023-05-07T05:25:03;11.60;99.90
54124;DHT22;55741;53.252;5.788;2023-05-07T05:27:29;11.60;99.90
54124;DHT22;55741;53.252;5.788;2023-05-07T05:29:55;11.60;99.90
54124;DHT22;55741;53.252;5.788;2023-05-07T05:32:21;11.60;99.90
54124;DHT22;55741;53.252;5.788;2023-05-07T05:34:48;11.60;99.90
54124;DHT22;55741;53.252;5.788;2023-05-07T05:37:13;11.60;99.90
54124;DHT22;55741;53.252;5.788;2023-05-07T05:39:39;11.60;99.90
54124;DHT22;55741;53.252;5.788;2023-05-07T05:42:05;11.60;99.90
54124;DHT22;55741;53.252;5.788;2023-05-07T05:44:31;11.60;99.90
54124;DHT22;55741;53.252;5.788;2023-05-07T05:46:57;11.60;99.90
54124;DHT22;55741;53.252;5.788;2023-05-07T05:49:25;11.60;99.90
54124;DHT22;55741;53.252;5.788;2023-05-07T05:51:51;11.60;99.90
54124;DHT22;55741;53.252;5.788;2023-05-07T05:54:17;11.60;99.90
54124;DHT22;55741;53.252;5.788;2023-05-07T05:56:43;11.60;99.90
54124;DHT22;55741;53.252;5.788;2023-05-07T05:59:08;11.60;99.90
54124;DHT22;55741;53.252;5.788;2023-05-07T06:01:36;11.60;99.90
54124;DHT22;55741;53.252;5.788;2023-05-07T06:04:02;11.60;99.90
54124;DHT22;55741;53.252;5.788;2023-05-07T06:06:28;11.60;99.90
54124;DHT22;55741;53.252;5.788;2023-05-07T06:08:53;11.60;99.90
54124;DHT22;55741;53.252;5.788;2023-05-07T06:11:19;11.60;99.90
54124;DHT22;55741;53.252;5.788;2023-05-07T06:13:45;11.60;99.90
54124;DHT22;55741;53.252;5.788;2023-05-07T06:16:11;11.60;99.90
54124;DHT22;55741;53.252;5.788;2023-05-07T06:18:37;11.70;99.90
54124;DHT22;55741;53.252;5.788;2023-05-07T06:21:03;11.70;99.90
54124;DHT22;55741;53.252;5.788;2023-05-07T06:23:29;11.70;99.90
54124;DHT22;55741;53.252;5.788;2023-05-07T06:25:55;11.70;99.90
54124;DHT22;55741;53.252;5.788;2023-05-07T06:28:21;11.70;99.90
54124;DHT22;55741;53.252;5.788;2023-05-07T06:30:47;11.70;99.90
54124;DHT22;55741;53.252;5.788;2023-05-07T06:33:15;11.70;99.90
54124;DHT22;55741;53.252;5.788;2023-05-07T06:35:41;11.80;99.90
54124;DHT22;55741;53.252;5.788;2023-05-07T06:38:07;11.80;99.90
54124;DHT22;55741;53.252;5.788;2023-05-07T06:40:33;11.80;99.90
54124;DHT22;55741;53.252;5.788;2023-05-07T06:42:58;11.80;99.90
54124;DHT22;55741;53.252;5.788;2023-05-07T06:45:24;11.90;99.90
54124;DHT22;55741;53.252;5.788;2023-05-07T06:47:50;11.90;99.90
54124;DHT22;55741;53.252;5.788;2023-05-07T06:50:16;11.90;99.90
54124;DHT22;55741;53.252;5.788;2023-05-07T06:52:42;11.90;99.90
54124;DHT22;55741;53.252;5.788;2023-05-07T06:55:09;12.00;99.90
54124;DHT22;55741;53.252;5.788;2023-05-07T06:57:35;12.00;99.90
54124;DHT22;55741;53.252;5.788;2023-05-07T07:00:00;12.00;99.90
54124;DHT22;55741;53.252;5.788;2023-05-07T07:02:28;12.10;99.90
54124;DHT22;55741;53.252;5.788;2023-05-07T07:04:54;12.10;99.90
54124;DHT22;55741;53.252;5.788;2023-05-07T07:07:19;12.10;99.90
54124;DHT22;55741;53.252;5.788;2023-05-07T07:09:45;12.10;99.90
54124;DHT22;55741;53.252;5.788;2023-05-07T07:12:11;12.20;99.90
54124;DHT22;55741;53.252;5.788;2023-05-07T07:14:37;12.20;99.90
54124;DHT22;55741;53.252;5.788;2023-05-07T07:17:03;12.20;99.90
54124;DHT22;55741;53.252;5.788;2023-05-07T07:19:30;12.20;99.90
54124;DHT22;55741;53.252;5.788;2023-05-07T07:21:56;12.20;99.90
54124;DHT22;55741;53.252;5.788;2023-05-07T07:24:22;12.30;99.90
54124;DHT22;55741;53.252;5.788;2023-05-07T07:26:48;12.30;99.90
54124;DHT22;55741;53.252;5.788;2023-05-07T07:29:13;12.40;99.90
54124;DHT22;55741;53.252;5.788;2023-05-07T07:31:42;12.40;99.90
54124;DHT22;55741;53.252;5.788;2023-05-07T07:34:08;12.40;99.90
54124;DHT22;55741;53.252;5.788;2023-05-07T07:36:34;12.50;99.90
54124;DHT22;55741;53.252;5.788;2023-05-07T07:39:00;12.50;99.90
54124;DHT22;55741;53.252;5.788;2023-05-07T07:41:26;12.50;99.90
54124;DHT22;55741;53.252;5.788;2023-05-07T07:43:52;12.50;99.90
54124;DHT22;55741;53.252;5.788;2023-05-07T07:46:18;12.50;99.90
54124;DHT22;55741;53.252;5.788;2023-05-07T07:48:43;12.60;99.90
54124;DHT22;55741;53.252;5.788;2023-05-07T07:51:10;12.60;99.90
54124;DHT22;55741;53.252;5.788;2023-05-07T07:53:36;12.70;99.90
54124;DHT22;55741;53.252;5.788;2023-05-07T07:56:01;12.70;99.90
54124;DHT22;55741;53.252;5.788;2023-05-07T07:58:27;12.70;99.90
54124;DHT22;55741;53.252;5.788;2023-05-07T08:00:53;12.70;99.90
54124;DHT22;55741;53.252;5.788;2023-05-07T08:03:23;12.70;99.90
54124;DHT22;55741;53.252;5.788;2023-05-07T08:05:48;12.80;99.90
54124;DHT22;55741;53.252;5.788;2023-05-07T08:08:16;12.80;99.90
54124;DHT22;55741;53.252;5.788;2023-05-07T08:10:42;12.90;99.90
54124;DHT22;55741;53.252;5.788;2023-05-07T08:13:08;13.00;99.90
54124;DHT22;55741;53.252;5.788;2023-05-07T08:15:34;13.10;99.90
54124;DHT22;55741;53.252;5.788;2023-05-07T08:18:01;13.10;99.90
54124;DHT22;55741;53.252;5.788;2023-05-07T08:20:28;13.10;99.90
54124;DHT22;55741;53.252;5.788;2023-05-07T08:22:54;13.20;99.90
54124;DHT22;55741;53.252;5.788;2023-05-07T08:25:20;13.30;99.90
54124;DHT22;55741;53.252;5.788;2023-05-07T08:27:46;13.40;99.90
54124;DHT22;55741;53.252;5.788;2023-05-07T08:30:12;13.50;99.90
54124;DHT22;55741;53.252;5.788;2023-05-07T08:32:38;13.50;99.90
54124;DHT22;55741;53.252;5.788;2023-05-07T08:35:04;13.60;99.90
54124;DHT22;55741;53.252;5.788;2023-05-07T08:37:30;13.70;99.90
54124;DHT22;55741;53.252;5.788;2023-05-07T08:39:56;13.80;99.90
54124;DHT22;55741;53.252;5.788;2023-05-07T08:42:24;13.90;99.90
54124;DHT22;55741;53.252;5.788;2023-05-07T08:44:51;13.90;99.90
54124;DHT22;55741;53.252;5.788;2023-05-07T08:47:22;13.90;99.90
54124;DHT22;55741;53.252;5.788;2023-05-07T08:49:50;13.90;99.90
54124;DHT22;55741;53.252;5.788;2023-05-07T08:52:16;14.00;99.90
54124;DHT22;55741;53.252;5.788;2023-05-07T08:54:42;14.10;99.90
54124;DHT22;55741;53.252;5.788;2023-05-07T08:57:08;14.20;99.90
54124;DHT22;55741;53.252;5.788;2023-05-07T08:59:34;14.30;99.90
54124;DHT22;55741;53.252;5.788;2023-05-07T09:02:00;14.40;99.90
54124;DHT22;55741;53.252;5.788;2023-05-07T09:04:27;14.50;99.90
54124;DHT22;55741;53.252;5.788;2023-05-07T09:06:53;14.50;99.90
54124;DHT22;55741;53.252;5.788;2023-05-07T09:09:21;14.60;99.90
54124;DHT22;55741;53.252;5.788;2023-05-07T09:11:47;14.60;99.90
54124;DHT22;55741;53.252;5.788;2023-05-07T09:14:13;14.70;99.90
54124;DHT22;55741;53.252;5.788;2023-05-07T09:16:39;14.80;99.90
54124;DHT22;55741;53.252;5.788;2023-05-07T09:19:05;14.90;99.90
54124;DHT22;55741;53.252;5.788;2023-05-07T09:21:30;15.10;99.90
54124;DHT22;55741;53.252;5.788;2023-05-07T09:23:57;15.10;99.90
54124;DHT22;55741;53.252;5.788;2023-05-07T09:26:24;15.20;99.90
54124;DHT22;55741;53.252;5.788;2023-05-07T09:28:51;15.30;99.90
54124;DHT22;55741;53.252;5.788;2023-05-07T09:31:17;15.40;99.90
54124;DHT22;55741;53.252;5.788;2023-05-07T09:33:43;15.60;99.90
54124;DHT22;55741;53.252;5.788;2023-05-07T09:36:09;15.70;99.90
54124;DHT22;55741;53.252;5.788;2023-05-07T09:38:36;15.70;99.90
54124;DHT22;55741;53.252;5.788;2023-05-07T09:43:35;15.60;99.90
54124;DHT22;55741;53.252;5.788;2023-05-07T09:46:24;15.70;99.90
54124;DHT22;55741;53.252;5.788;2023-05-07T09:48:53;15.80;99.90
54124;DHT22;55741;53.252;5.788;2023-05-07T09:51:28;15.80;99.90
54124;DHT22;55741;53.252;5.788;2023-05-07T09:53:56;15.90;99.90
54124;DHT22;55741;53.252;5.788;2023-05-07T09:56:22;16.00;99.90
54124;DHT22;55741;53.252;5.788;2023-05-07T09:58:52;16.20;99.90
54124;DHT22;55741;53.252;5.788;2023-05-07T10:01:20;16.30;99.90
54124;DHT22;55741;53.252;5.788;2023-05-07T10:03:49;16.30;99.90
54124;DHT22;55741;53.252;5.788;2023-05-07T10:06:17;16.40;99.90
54124;DHT22;55741;53.252;5.788;2023-05-07T10:08:44;16.50;99.90
54124;DHT22;55741;53.252;5.788;2023-05-07T10:11:10;16.60;99.90
54124;DHT22;55741;53.252;5.788;2023-05-07T10:13:37;16.70;99.90
54124;DHT22;55741;53.252;5.788;2023-05-07T10:16:04;16.70;99.90
54124;DHT22;55741;53.252;5.788;2023-05-07T10:18:33;16.70;99.90
54124;DHT22;55741;53.252;5.788;2023-05-07T10:21:04;16.80;99.90
54124;DHT22;55741;53.252;5.788;2023-05-07T10:23:32;17.00;99.90
54124;DHT22;55741;53.252;5.788;2023-05-07T10:26:04;17.20;99.90
54124;DHT22;55741;53.252;5.788;2023-05-07T10:28:34;17.30;99.90
54124;DHT22;55741;53.252;5.788;2023-05-07T10:33:42;17.70;99.90
54124;DHT22;55741;53.252;5.788;2023-05-07T10:36:09;17.90;99.90
54124;DHT22;55741;53.252;5.788;2023-05-07T10:38:36;18.10;99.90
54124;DHT22;55741;53.252;5.788;2023-05-07T10:41:02;18.20;99.90
54124;DHT22;55741;53.252;5.788;2023-05-07T10:43:40;18.30;99.90
54124;DHT22;55741;53.252;5.788;2023-05-07T10:46:17;18.30;99.90
54124;DHT22;55741;53.252;5.788;2023-05-07T10:49:09;18.30;99.90
54124;DHT22;55741;53.252;5.788;2023-05-07T10:51:37;18.40;99.90
54124;DHT22;55741;53.252;5.788;2023-05-07T10:56:34;18.50;99.90
54124;DHT22;55741;53.252;5.788;2023-05-07T11:02:03;18.60;99.90
54124;DHT22;55741;53.252;5.788;2023-05-07T11:04:32;18.60;99.90
54124;DHT22;55741;53.252;5.788;2023-05-07T11:07:24;18.60;99.90
54124;DHT22;55741;53.252;5.788;2023-05-07T11:15:12;18.90;99.90
54124;DHT22;55741;53.252;5.788;2023-05-07T11:17:58;18.80;99.90
54124;DHT22;55741;53.252;5.788;2023-05-07T11:26:11;18.90;99.90
54124;DHT22;55741;53.252;5.788;2023-05-07T11:28:38;19.00;99.90
54124;DHT22;55741;53.252;5.788;2023-05-07T11:31:04;19.00;99.90
54124;DHT22;55741;53.252;5.788;2023-05-07T11:33:31;19.10;99.90
54124;DHT22;55741;53.252;5.788;2023-05-07T11:35:57;19.10;99.90
54124;DHT22;55741;53.252;5.788;2023-05-07T11:38:25;19.10;99.90
54124;DHT22;55741;53.252;5.788;2023-05-07T11:40:52;19.10;99.90
54124;DHT22;55741;53.252;5.788;2023-05-07T11:43:19;19.20;99.90
54124;DHT22;55741;53.252;5.788;2023-05-07T11:45:45;19.20;99.90
54124;DHT22;55741;53.252;5.788;2023-05-07T11:48:16;19.30;99.90
54124;DHT22;55741;53.252;5.788;2023-05-07T11:53:33;19.60;99.90
54124;DHT22;55741;53.252;5.788;2023-05-07T11:56:09;19.80;99.90
54124;DHT22;55741;53.252;5.788;2023-05-07T11:58:35;19.90;99.90
54124;DHT22;55741;53.252;5.788;2023-05-07T12:01:01;20.00;99.90
54124;DHT22;55741;53.252;5.788;2023-05-07T12:03:27;20.00;99.90
54124;DHT22;55741;53.252;5.788;2023-05-07T12:05:53;20.00;99.90
54124;DHT22;55741;53.252;5.788;2023-05-07T12:08:21;20.10;99.90
54124;DHT22;55741;53.252;5.788;2023-05-07T12:10:49;20.20;99.90
54124;DHT22;55741;53.252;5.788;2023-05-07T12:13:19;20.20;99.90
54124;DHT22;55741;53.252;5.788;2023-05-07T12:15:45;20.30;99.90
54124;DHT22;55741;53.252;5.788;2023-05-07T12:18:12;20.50;99.90
54124;DHT22;55741;53.252;5.788;2023-05-07T12:20:39;20.60;99.90
54124;DHT22;55741;53.252;5.788;2023-05-07T12:23:05;20.70;99.90
54124;DHT22;55741;53.252;5.788;2023-05-07T12:25:42;20.80;99.90
54124;DHT22;55741;53.252;5.788;2023-05-07T12:28:18;21.00;99.90
54124;DHT22;55741;53.252;5.788;2023-05-07T12:31:04;21.10;99.90
54124;DHT22;55741;53.252;5.788;2023-05-07T12:33:31;21.20;99.90
54124;DHT22;55741;53.252;5.788;2023-05-07T12:35:58;21.10;99.90
54124;DHT22;55741;53.252;5.788;2023-05-07T12:38:24;21.00;99.90
54124;DHT22;55741;53.252;5.788;2023-05-07T12:40:53;21.00;99.90
54124;DHT22;55741;53.252;5.788;2023-05-07T12:43:26;21.00;99.90
54124;DHT22;55741;53.252;5.788;2023-05-07T12:45:58;20.90;99.90
54124;DHT22;55741;53.252;5.788;2023-05-07T12:48:25;21.00;99.90
54124;DHT22;55741;53.252;5.788;2023-05-07T12:50:55;21.10;99.90
54124;DHT22;55741;53.252;5.788;2023-05-07T12:53:23;21.30;99.90
54124;DHT22;55741;53.252;5.788;2023-05-07T12:55:52;21.60;99.90
54124;DHT22;55741;53.252;5.788;2023-05-07T12:58:19;21.70;99.90
54124;DHT22;55741;53.252;5.788;2023-05-07T13:00:48;21.80;99.90
54124;DHT22;55741;53.252;5.788;2023-05-07T13:03:22;21.90;99.90
54124;DHT22;55741;53.252;5.788;2023-05-07T13:05:48;21.90;99.90
54124;DHT22;55741;53.252;5.788;2023-05-07T13:08:26;22.00;99.90
54124;DHT22;55741;53.252;5.788;2023-05-07T13:10:54;22.10;99.90
54124;DHT22;55741;53.252;5.788;2023-05-07T13:13:21;22.20;99.90
54124;DHT22;55741;53.252;5.788;2023-05-07T13:15:47;22.20;99.90
54124;DHT22;55741;53.252;5.788;2023-05-07T13:18:13;22.20;99.90
54124;DHT22;55741;53.252;5.788;2023-05-07T13:20:39;22.30;99.90
54124;DHT22;55741;53.252;5.788;2023-05-07T13:23:06;22.20;99.90
54124;DHT22;55741;53.252;5.788;2023-05-07T13:25:32;22.20;99.90
54124;DHT22;55741;53.252;5.788;2023-05-07T13:27:58;22.20;99.90
54124;DHT22;55741;53.252;5.788;2023-05-07T13:30:24;22.20;99.90
54124;DHT22;55741;53.252;5.788;2023-05-07T13:32:49;22.30;99.90
54124;DHT22;55741;53.252;5.788;2023-05-07T13:35:17;22.40;99.90
54124;DHT22;55741;53.252;5.788;2023-05-07T13:37:43;22.50;99.90
54124;DHT22;55741;53.252;5.788;2023-05-07T13:40:09;22.50;99.90
54124;DHT22;55741;53.252;5.788;2023-05-07T13:42:35;22.60;99.90
54124;DHT22;55741;53.252;5.788;2023-05-07T13:45:01;22.50;99.90
54124;DHT22;55741;53.252;5.788;2023-05-07T13:47:29;22.50;99.90
54124;DHT22;55741;53.252;5.788;2023-05-07T13:49:55;22.40;99.90
54124;DHT22;55741;53.252;5.788;2023-05-07T13:52:21;22.50;99.90
54124;DHT22;55741;53.252;5.788;2023-05-07T13:54:47;22.50;99.90
54124;DHT22;55741;53.252;5.788;2023-05-07T13:57:13;22.50;99.90
54124;DHT22;55741;53.252;5.788;2023-05-07T13:59:38;22.60;99.90
54124;DHT22;55741;53.252;5.788;2023-05-07T14:02:04;22.50;99.90
54124;DHT22;55741;53.252;5.788;2023-05-07T14:04:31;22.40;99.90
54124;DHT22;55741;53.252;5.788;2023-05-07T14:06:56;22.40;99.90
54124;DHT22;55741;53.252;5.788;2023-05-07T14:09:22;22.30;99.90
54124;DHT22;55741;53.252;5.788;2023-05-07T14:11:50;22.20;99.90
54124;DHT22;55741;53.252;5.788;2023-05-07T14:14:17;22.20;99.90
54124;DHT22;55741;53.252;5.788;2023-05-07T14:16:44;22.20;99.90
54124;DHT22;55741;53.252;5.788;2023-05-07T14:19:11;22.30;99.90
54124;DHT22;55741;53.252;5.788;2023-05-07T14:21:37;22.20;99.90
54124;DHT22;55741;53.252;5.788;2023-05-07T14:24:03;22.10;99.90
54124;DHT22;55741;53.252;5.788;2023-05-07T14:26:29;21.90;99.90
54124;DHT22;55741;53.252;5.788;2023-05-07T14:28:55;21.90;99.90
54124;DHT22;55741;53.252;5.788;2023-05-07T14:31:24;21.80;99.90
54124;DHT22;55741;53.252;5.788;2023-05-07T14:33:50;21.90;99.90
54124;DHT22;55741;53.252;5.788;2023-05-07T14:36:17;21.80;99.90
54124;DHT22;55741;53.252;5.788;2023-05-07T14:38:46;21.70;99.90
54124;DHT22;55741;53.252;5.788;2023-05-07T14:41:11;21.60;99.90
54124;DHT22;55741;53.252;5.788;2023-05-07T14:43:37;21.60;99.90
54124;DHT22;55741;53.252;5.788;2023-05-07T14:46:03;21.60;99.90
54124;DHT22;55741;53.252;5.788;2023-05-07T14:48:29;21.50;99.90
54124;DHT22;55741;53.252;5.788;2023-05-07T14:50:55;21.40;99.90
54124;DHT22;55741;53.252;5.788;2023-05-07T14:53:22;21.30;99.90
54124;DHT22;55741;53.252;5.788;2023-05-07T14:55:48;21.20;99.90
54124;DHT22;55741;53.252;5.788;2023-05-07T14:58:14;21.20;99.90
54124;DHT22;55741;53.252;5.788;2023-05-07T15:00:40;21.10;99.90
54124;DHT22;55741;53.252;5.788;2023-05-07T15:03:08;21.00;99.90
54124;DHT22;55741;53.252;5.788;2023-05-07T15:05:36;21.00;99.90
54124;DHT22;55741;53.252;5.788;2023-05-07T15:08:02;21.00;99.90
54124;DHT22;55741;53.252;5.788;2023-05-07T15:10:28;20.90;99.90
54124;DHT22;55741;53.252;5.788;2023-05-07T15:12:55;20.90;99.90
54124;DHT22;55741;53.252;5.788;2023-05-07T15:15:21;20.90;99.90
54124;DHT22;55741;53.252;5.788;2023-05-07T15:17:47;20.90;99.90
54124;DHT22;55741;53.252;5.788;2023-05-07T15:20:13;20.80;99.90
54124;DHT22;55741;53.252;5.788;2023-05-07T15:22:39;20.90;99.90
54124;DHT22;55741;53.252;5.788;2023-05-07T15:25:05;20.90;99.90
54124;DHT22;55741;53.252;5.788;2023-05-07T15:27:31;20.90;99.90
54124;DHT22;55741;53.252;5.788;2023-05-07T15:29:57;20.90;99.90
54124;DHT22;55741;53.252;5.788;2023-05-07T15:32:23;20.90;99.90
54124;DHT22;55741;53.252;5.788;2023-05-07T15:34:49;20.90;99.90
54124;DHT22;55741;53.252;5.788;2023-05-07T15:37:15;20.90;99.90
54124;DHT22;55741;53.252;5.788;2023-05-07T15:39:41;20.90;99.90
54124;DHT22;55741;53.252;5.788;2023-05-07T15:42:06;20.90;99.90
54124;DHT22;55741;53.252;5.788;2023-05-07T15:44:32;20.80;99.90
54124;DHT22;55741;53.252;5.788;2023-05-07T15:46:59;20.80;99.90
54124;DHT22;55741;53.252;5.788;2023-05-07T15:49:25;20.70;99.90
54124;DHT22;55741;53.252;5.788;2023-05-07T15:51:51;20.70;99.90